sensor_id;sensor_type;location;lat;lon;timestamp;P1;durP1;ratioP1;P2;durP2;ratioP2
29362;SDS011;16349;53.672;10.014;2022-08-03T00:01:39;9.53;;;8.63;;
29362;SDS011;16349;53.672;10.014;2022-08-03T00:04:07;8.13;;;7.33;;
29362;SDS011;16349;53.672;10.014;2022-08-03T00:06:35;9.33;;;7.70;;
29362;SDS011;16349;53.672;10.014;2022-08-03T00:09:02;7.70;;;7.00;;
29362;SDS011;16349;53.672;10.014;2022-08-03T00:11:30;7.83;;;6.30;;
29362;SDS011;16349;53.672;10.014;2022-08-03T00:13:58;6.83;;;6.23;;
29362;SDS011;16349;53.672;10.014;2022-08-03T00:16:25;7.30;;;6.60;;
29362;SDS011;16349;53.672;10.014;2022-08-03T00:18:52;7.50;;;6.80;;
29362;SDS011;16349;53.672;10.014;2022-08-03T00:21:19;7.63;;;6.17;;
29362;SDS011;16349;53.672;10.014;2022-08-03T00:23:46;6.60;;;5.80;;
29362;SDS011;16349;53.672;10.014;2022-08-03T00:26:12;6.57;;;5.97;;
29362;SDS011;16349;53.672;10.014;2022-08-03T00:28:40;6.30;;;5.70;;
29362;SDS011;16349;53.672;10.014;2022-08-03T00:31:07;7.00;;;5.97;;
29362;SDS011;16349;53.672;10.014;2022-08-03T00:33:34;6.27;;;5.77;;
29362;SDS011;16349;53.672;10.014;2022-08-03T00:36:01;7.30;;;5.97;;
29362;SDS011;16349;53.672;10.014;2022-08-03T00:38:28;8.47;;;6.03;;
29362;SDS011;16349;53.672;10.014;2022-08-03T00:40:55;5.87;;;5.33;;
29362;SDS011;16349;53.672;10.014;2022-08-03T00:43:23;5.87;;;5.37;;
29362;SDS011;16349;53.672;10.014;2022-08-03T00:45:52;6.07;;;5.50;;
29362;SDS011;16349;53.672;10.014;2022-08-03T00:48:20;6.20;;;5.60;;
29362;SDS011;16349;53.672;10.014;2022-08-03T00:50:47;7.10;;;5.40;;
29362;SDS011;16349;53.672;10.014;2022-08-03T00:53:14;5.67;;;5.20;;
29362;SDS011;16349;53.672;10.014;2022-08-03T00:55:41;10.13;;;6.03;;
29362;SDS011;16349;53.672;10.014;2022-08-03T00:58:09;6.07;;;5.57;;
29362;SDS011;16349;53.672;10.014;2022-08-03T01:00:36;6.53;;;5.70;;
29362;SDS011;16349;53.672;10.014;2022-08-03T01:03:05;6.73;;;5.47;;
29362;SDS011;16349;53.672;10.014;2022-08-03T01:05:36;7.20;;;5.07;;
29362;SDS011;16349;53.672;10.014;2022-08-03T01:08:10;5.93;;;5.50;;
29362;SDS011;16349;53.672;10.014;2022-08-03T01:10:45;5.33;;;4.83;;
29362;SDS011;16349;53.672;10.014;2022-08-03T01:13:21;6.07;;;5.47;;
29362;SDS011;16349;53.672;10.014;2022-08-03T01:15:55;6.33;;;5.63;;
29362;SDS011;16349;53.672;10.014;2022-08-03T01:18:28;5.53;;;5.07;;
29362;SDS011;16349;53.672;10.014;2022-08-03T01:21:02;5.57;;;5.07;;
29362;SDS011;16349;53.672;10.014;2022-08-03T01:23:40;5.73;;;5.33;;
29362;SDS011;16349;53.672;10.014;2022-08-03T01:26:27;6.53;;;5.00;;
29362;SDS011;16349;53.672;10.014;2022-08-03T01:29:20;5.67;;;5.27;;
29362;SDS011;16349;53.672;10.014;2022-08-03T01:32:04;5.93;;;5.30;;
29362;SDS011;16349;53.672;10.014;2022-08-03T01:34:40;5.57;;;5.13;;
29362;SDS011;16349;53.672;10.014;2022-08-03T01:37:10;6.10;;;5.43;;
29362;SDS011;16349;53.672;10.014;2022-08-03T01:39:41;6.20;;;5.67;;
29362;SDS011;16349;53.672;10.014;2022-08-03T01:42:10;5.57;;;4.93;;
29362;SDS011;16349;53.672;10.014;2022-08-03T01:44:41;6.10;;;5.57;;
29362;SDS011;16349;53.672;10.014;2022-08-03T01:47:10;5.70;;;5.20;;
29362;SDS011;16349;53.672;10.014;2022-08-03T01:49:39;5.60;;;5.10;;
29362;SDS011;16349;53.672;10.014;2022-08-03T01:52:10;6.03;;;5.50;;
29362;SDS011;16349;53.672;10.014;2022-08-03T01:54:40;5.93;;;5.43;;
29362;SDS011;16349;53.672;10.014;2022-08-03T01:57:09;4.53;;;4.23;;
29362;SDS011;16349;53.672;10.014;2022-08-03T01:59:37;4.93;;;4.63;;
29362;SDS011;16349;53.672;10.014;2022-08-03T02:02:06;5.70;;;5.13;;
29362;SDS011;16349;53.672;10.014;2022-08-03T02:04:37;5.60;;;5.10;;
29362;SDS011;16349;53.672;10.014;2022-08-03T02:07:06;5.30;;;4.90;;
29362;SDS011;16349;53.672;10.014;2022-08-03T02:09:35;5.57;;;5.10;;
29362;SDS011;16349;53.672;10.014;2022-08-03T02:12:06;5.67;;;4.90;;
29362;SDS011;16349;53.672;10.014;2022-08-03T02:14:34;5.53;;;4.77;;
29362;SDS011;16349;53.672;10.014;2022-08-03T02:17:02;5.33;;;4.93;;
29362;SDS011;16349;53.672;10.014;2022-08-03T02:19:32;7.20;;;5.03;;
29362;SDS011;16349;53.672;10.014;2022-08-03T02:22:01;5.30;;;4.93;;
29362;SDS011;16349;53.672;10.014;2022-08-03T02:24:28;6.13;;;5.30;;
29362;SDS011;16349;53.672;10.014;2022-08-03T02:26:56;5.23;;;4.80;;
29362;SDS011;16349;53.672;10.014;2022-08-03T02:29:25;5.27;;;4.87;;
29362;SDS011;16349;53.672;10.014;2022-08-03T02:31:57;5.30;;;4.87;;
29362;SDS011;16349;53.672;10.014;2022-08-03T02:34:28;5.57;;;4.97;;
29362;SDS011;16349;53.672;10.014;2022-08-03T02:37:00;10.13;;;5.03;;
29362;SDS011;16349;53.672;10.014;2022-08-03T02:39:29;5.57;;;5.17;;
29362;SDS011;16349;53.672;10.014;2022-08-03T02:41:58;5.83;;;5.33;;
29362;SDS011;16349;53.672;10.014;2022-08-03T02:44:29;5.23;;;4.77;;
29362;SDS011;16349;53.672;10.014;2022-08-03T02:46:59;5.60;;;5.20;;
29362;SDS011;16349;53.672;10.014;2022-08-03T02:49:31;5.67;;;4.97;;
29362;SDS011;16349;53.672;10.014;2022-08-03T02:52:00;5.50;;;5.00;;
29362;SDS011;16349;53.672;10.014;2022-08-03T02:54:30;6.43;;;5.70;;
29362;SDS011;16349;53.672;10.014;2022-08-03T02:56:58;5.20;;;4.80;;
29362;SDS011;16349;53.672;10.014;2022-08-03T02:59:27;5.30;;;4.80;;
29362;SDS011;16349;53.672;10.014;2022-08-03T03:01:56;5.70;;;5.10;;
29362;SDS011;16349;53.672;10.014;2022-08-03T03:04:25;5.27;;;4.87;;
29362;SDS011;16349;53.672;10.014;2022-08-03T03:06:56;5.57;;;5.17;;
29362;SDS011;16349;53.672;10.014;2022-08-03T03:09:24;5.27;;;4.70;;
29362;SDS011;16349;53.672;10.014;2022-08-03T03:11:51;7.00;;;5.50;;
29362;SDS011;16349;53.672;10.014;2022-08-03T03:14:19;5.77;;;5.27;;
29362;SDS011;16349;53.672;10.014;2022-08-03T03:16:47;5.97;;;5.37;;
29362;SDS011;16349;53.672;10.014;2022-08-03T03:19:14;5.90;;;5.40;;
29362;SDS011;16349;53.672;10.014;2022-08-03T03:21:43;6.60;;;5.23;;
29362;SDS011;16349;53.672;10.014;2022-08-03T03:24:13;6.23;;;4.97;;
29362;SDS011;16349;53.672;10.014;2022-08-03T03:26:41;5.67;;;5.13;;
29362;SDS011;16349;53.672;10.014;2022-08-03T03:29:08;5.10;;;4.70;;
29362;SDS011;16349;53.672;10.014;2022-08-03T03:31:36;5.70;;;5.30;;
29362;SDS011;16349;53.672;10.014;2022-08-03T03:34:03;5.60;;;5.20;;
29362;SDS011;16349;53.672;10.014;2022-08-03T03:36:30;5.30;;;5.00;;
29362;SDS011;16349;53.672;10.014;2022-08-03T03:38:57;5.83;;;5.33;;
29362;SDS011;16349;53.672;10.014;2022-08-03T03:41:25;5.33;;;4.80;;
29362;SDS011;16349;53.672;10.014;2022-08-03T03:43:52;5.53;;;5.13;;
29362;SDS011;16349;53.672;10.014;2022-08-03T03:46:19;5.40;;;4.90;;
29362;SDS011;16349;53.672;10.014;2022-08-03T03:48:47;5.80;;;5.40;;
29362;SDS011;16349;53.672;10.014;2022-08-03T03:51:14;5.40;;;5.00;;
29362;SDS011;16349;53.672;10.014;2022-08-03T03:53:52;5.67;;;5.17;;
29362;SDS011;16349;53.672;10.014;2022-08-03T03:56:20;5.50;;;5.10;;
29362;SDS011;16349;53.672;10.014;2022-08-03T03:58:48;5.33;;;4.83;;
29362;SDS011;16349;53.672;10.014;2022-08-03T04:01:16;7.77;;;5.53;;
29362;SDS011;16349;53.672;10.014;2022-08-03T04:03:42;5.00;;;4.57;;
29362;SDS011;16349;53.672;10.014;2022-08-03T04:06:10;5.40;;;4.90;;
29362;SDS011;16349;53.672;10.014;2022-08-03T04:08:56;5.43;;;4.87;;
29362;SDS011;16349;53.672;10.014;2022-08-03T04:11:42;4.87;;;4.57;;
29362;SDS011;16349;53.672;10.014;2022-08-03T04:14:16;5.37;;;4.97;;
29362;SDS011;16349;53.672;10.014;2022-08-03T04:16:47;5.60;;;5.07;;
29362;SDS011;16349;53.672;10.014;2022-08-03T04:19:17;5.97;;;5.47;;
29362;SDS011;16349;53.672;10.014;2022-08-03T04:21:49;5.70;;;5.30;;
29362;SDS011;16349;53.672;10.014;2022-08-03T04:24:19;5.57;;;5.17;;
29362;SDS011;16349;53.672;10.014;2022-08-03T04:26:47;5.10;;;4.70;;
29362;SDS011;16349;53.672;10.014;2022-08-03T04:29:16;5.40;;;4.93;;
29362;SDS011;16349;53.672;10.014;2022-08-03T04:31:46;5.27;;;4.87;;
29362;SDS011;16349;53.672;10.014;2022-08-03T04:34:14;5.90;;;5.40;;
29362;SDS011;16349;53.672;10.014;2022-08-03T04:36:43;5.67;;;5.17;;
29362;SDS011;16349;53.672;10.014;2022-08-03T04:39:15;5.23;;;4.83;;
29362;SDS011;16349;53.672;10.014;2022-08-03T04:41:44;5.70;;;5.30;;
29362;SDS011;16349;53.672;10.014;2022-08-03T04:44:14;5.43;;;5.13;;
29362;SDS011;16349;53.672;10.014;2022-08-03T04:46:43;5.67;;;5.07;;
29362;SDS011;16349;53.672;10.014;2022-08-03T04:49:10;5.40;;;5.00;;
29362;SDS011;16349;53.672;10.014;2022-08-03T04:51:37;6.33;;;5.73;;
29362;SDS011;16349;53.672;10.014;2022-08-03T04:54:04;5.63;;;5.23;;
29362;SDS011;16349;53.672;10.014;2022-08-03T04:56:32;5.87;;;5.37;;
29362;SDS011;16349;53.672;10.014;2022-08-03T04:58:59;5.50;;;5.20;;
29362;SDS011;16349;53.672;10.014;2022-08-03T05:01:26;6.33;;;5.10;;
29362;SDS011;16349;53.672;10.014;2022-08-03T05:03:54;5.93;;;5.30;;
29362;SDS011;16349;53.672;10.014;2022-08-03T05:06:20;6.30;;;5.77;;
29362;SDS011;16349;53.672;10.014;2022-08-03T05:08:48;6.07;;;5.50;;
29362;SDS011;16349;53.672;10.014;2022-08-03T05:11:15;5.73;;;5.20;;
29362;SDS011;16349;53.672;10.014;2022-08-03T05:13:42;5.70;;;5.30;;
29362;SDS011;16349;53.672;10.014;2022-08-03T05:16:09;5.77;;;5.27;;
29362;SDS011;16349;53.672;10.014;2022-08-03T05:18:38;5.63;;;5.20;;
29362;SDS011;16349;53.672;10.014;2022-08-03T05:21:06;6.00;;;5.60;;
29362;SDS011;16349;53.672;10.014;2022-08-03T05:23:34;5.57;;;5.07;;
29362;SDS011;16349;53.672;10.014;2022-08-03T05:26:02;6.33;;;5.83;;
29362;SDS011;16349;53.672;10.014;2022-08-03T05:28:28;7.60;;;6.77;;
29362;SDS011;16349;53.672;10.014;2022-08-03T05:30:56;8.43;;;6.27;;
29362;SDS011;16349;53.672;10.014;2022-08-03T05:33:22;6.20;;;5.57;;
29362;SDS011;16349;53.672;10.014;2022-08-03T05:35:49;8.83;;;6.63;;
29362;SDS011;16349;53.672;10.014;2022-08-03T05:38:17;7.90;;;6.17;;
29362;SDS011;16349;53.672;10.014;2022-08-03T05:40:44;7.33;;;5.93;;
29362;SDS011;16349;53.672;10.014;2022-08-03T05:43:11;6.60;;;6.10;;
29362;SDS011;16349;53.672;10.014;2022-08-03T05:45:38;7.17;;;6.50;;
29362;SDS011;16349;53.672;10.014;2022-08-03T05:48:05;6.57;;;6.00;;
29362;SDS011;16349;53.672;10.014;2022-08-03T05:50:32;6.43;;;5.67;;
29362;SDS011;16349;53.672;10.014;2022-08-03T05:53:00;7.17;;;5.90;;
29362;SDS011;16349;53.672;10.014;2022-08-03T05:55:28;61.67;;;13.70;;
29362;SDS011;16349;53.672;10.014;2022-08-03T05:57:55;6.47;;;5.83;;
29362;SDS011;16349;53.672;10.014;2022-08-03T06:00:22;6.40;;;5.80;;
29362;SDS011;16349;53.672;10.014;2022-08-03T06:02:49;10.20;;;6.20;;
29362;SDS011;16349;53.672;10.014;2022-08-03T06:05:16;6.10;;;5.50;;
29362;SDS011;16349;53.672;10.014;2022-08-03T06:07:43;6.33;;;5.73;;
29362;SDS011;16349;53.672;10.014;2022-08-03T06:10:10;6.47;;;5.57;;
29362;SDS011;16349;53.672;10.014;2022-08-03T06:12:39;8.20;;;5.40;;
29362;SDS011;16349;53.672;10.014;2022-08-03T06:15:06;9.40;;;6.00;;
29362;SDS011;16349;53.672;10.014;2022-08-03T06:17:40;5.80;;;5.30;;
29362;SDS011;16349;53.672;10.014;2022-08-03T06:20:10;6.90;;;5.00;;
29362;SDS011;16349;53.672;10.014;2022-08-03T06:22:37;7.03;;;6.07;;
29362;SDS011;16349;53.672;10.014;2022-08-03T06:25:22;5.53;;;5.03;;
29362;SDS011;16349;53.672;10.014;2022-08-03T06:27:51;6.37;;;4.80;;
29362;SDS011;16349;53.672;10.014;2022-08-03T06:30:18;8.80;;;4.60;;
29362;SDS011;16349;53.672;10.014;2022-08-03T06:32:45;7.00;;;4.97;;
29362;SDS011;16349;53.672;10.014;2022-08-03T06:35:12;11.20;;;4.93;;
29362;SDS011;16349;53.672;10.014;2022-08-03T06:37:40;6.33;;;4.00;;
29362;SDS011;16349;53.672;10.014;2022-08-03T06:40:09;5.73;;;4.57;;
29362;SDS011;16349;53.672;10.014;2022-08-03T06:42:37;4.73;;;4.40;;
29362;SDS011;16349;53.672;10.014;2022-08-03T06:45:06;5.77;;;4.03;;
29362;SDS011;16349;53.672;10.014;2022-08-03T06:47:34;3.67;;;3.47;;
29362;SDS011;16349;53.672;10.014;2022-08-03T06:50:01;4.50;;;4.20;;
29362;SDS011;16349;53.672;10.014;2022-08-03T06:52:29;6.03;;;4.50;;
29362;SDS011;16349;53.672;10.014;2022-08-03T06:54:56;5.57;;;4.10;;
29362;SDS011;16349;53.672;10.014;2022-08-03T06:57:22;4.97;;;4.47;;
29362;SDS011;16349;53.672;10.014;2022-08-03T06:59:50;7.07;;;4.13;;
29362;SDS011;16349;53.672;10.014;2022-08-03T07:02:18;4.43;;;3.97;;
29362;SDS011;16349;53.672;10.014;2022-08-03T07:04:45;4.78;;;4.28;;
29362;SDS011;16349;53.672;10.014;2022-08-03T07:07:12;6.70;;;4.70;;
29362;SDS011;16349;53.672;10.014;2022-08-03T07:09:39;8.00;;;4.30;;
29362;SDS011;16349;53.672;10.014;2022-08-03T07:12:06;6.88;;;4.13;;
29362;SDS011;16349;53.672;10.014;2022-08-03T07:14:32;4.45;;;4.13;;
29362;SDS011;16349;53.672;10.014;2022-08-03T07:16:59;5.65;;;3.75;;
29362;SDS011;16349;53.672;10.014;2022-08-03T07:19:27;6.75;;;3.60;;
29362;SDS011;16349;53.672;10.014;2022-08-03T07:21:54;4.38;;;2.90;;
29362;SDS011;16349;53.672;10.014;2022-08-03T07:24:20;4.60;;;3.45;;
29362;SDS011;16349;53.672;10.014;2022-08-03T07:26:47;3.90;;;2.92;;
29362;SDS011;16349;53.672;10.014;2022-08-03T07:29:14;6.43;;;2.88;;
29362;SDS011;16349;53.672;10.014;2022-08-03T07:31:41;4.85;;;2.80;;
29362;SDS011;16349;53.672;10.014;2022-08-03T07:34:08;2.95;;;2.63;;
29362;SDS011;16349;53.672;10.014;2022-08-03T07:36:36;3.80;;;2.80;;
29362;SDS011;16349;53.672;10.014;2022-08-03T07:39:03;4.70;;;2.53;;
29362;SDS011;16349;53.672;10.014;2022-08-03T07:41:30;3.40;;;2.80;;
29362;SDS011;16349;53.672;10.014;2022-08-03T07:43:58;3.72;;;3.20;;
29362;SDS011;16349;53.672;10.014;2022-08-03T07:46:24;3.22;;;2.92;;
29362;SDS011;16349;53.672;10.014;2022-08-03T07:48:51;5.63;;;2.72;;
29362;SDS011;16349;53.672;10.014;2022-08-03T07:51:17;3.55;;;2.40;;
29362;SDS011;16349;53.672;10.014;2022-08-03T07:53:45;2.95;;;2.33;;
29362;SDS011;16349;53.672;10.014;2022-08-03T07:56:12;3.05;;;2.15;;
29362;SDS011;16349;53.672;10.014;2022-08-03T07:58:41;3.10;;;1.90;;
29362;SDS011;16349;53.672;10.014;2022-08-03T08:01:07;4.88;;;2.05;;
29362;SDS011;16349;53.672;10.014;2022-08-03T08:03:34;3.40;;;2.05;;
29362;SDS011;16349;53.672;10.014;2022-08-03T08:06:20;2.78;;;1.73;;
29362;SDS011;16349;53.672;10.014;2022-08-03T08:08:48;3.72;;;2.15;;
29362;SDS011;16349;53.672;10.014;2022-08-03T08:11:15;2.20;;;2.10;;
29362;SDS011;16349;53.672;10.014;2022-08-03T08:13:42;3.28;;;2.45;;
29362;SDS011;16349;53.672;10.014;2022-08-03T08:16:09;2.13;;;1.67;;
29362;SDS011;16349;53.672;10.014;2022-08-03T08:18:36;3.28;;;1.80;;
29362;SDS011;16349;53.672;10.014;2022-08-03T08:21:02;2.38;;;1.75;;
29362;SDS011;16349;53.672;10.014;2022-08-03T08:23:29;3.80;;;1.90;;
29362;SDS011;16349;53.672;10.014;2022-08-03T08:25:57;1.92;;;1.70;;
29362;SDS011;16349;53.672;10.014;2022-08-03T08:28:24;3.05;;;2.03;;
29362;SDS011;16349;53.672;10.014;2022-08-03T08:30:51;2.55;;;1.88;;
29362;SDS011;16349;53.672;10.014;2022-08-03T08:33:18;3.35;;;1.70;;
29362;SDS011;16349;53.672;10.014;2022-08-03T08:35:45;5.25;;;1.80;;
29362;SDS011;16349;53.672;10.014;2022-08-03T08:38:11;4.70;;;2.13;;
29362;SDS011;16349;53.672;10.014;2022-08-03T08:40:38;3.55;;;2.35;;
29362;SDS011;16349;53.672;10.014;2022-08-03T08:43:07;2.28;;;1.80;;
29362;SDS011;16349;53.672;10.014;2022-08-03T08:45:34;3.35;;;1.98;;
29362;SDS011;16349;53.672;10.014;2022-08-03T08:48:01;3.50;;;2.10;;
29362;SDS011;16349;53.672;10.014;2022-08-03T08:50:29;2.03;;;1.80;;
29362;SDS011;16349;53.672;10.014;2022-08-03T08:52:57;3.78;;;1.98;;
29362;SDS011;16349;53.672;10.014;2022-08-03T08:55:27;4.15;;;2.20;;
29362;SDS011;16349;53.672;10.014;2022-08-03T08:57:55;3.30;;;1.90;;
29362;SDS011;16349;53.672;10.014;2022-08-03T09:00:25;2.08;;;1.98;;
29362;SDS011;16349;53.672;10.014;2022-08-03T09:02:52;2.20;;;2.00;;
29362;SDS011;16349;53.672;10.014;2022-08-03T09:05:19;2.13;;;2.00;;
29362;SDS011;16349;53.672;10.014;2022-08-03T09:07:46;3.63;;;1.95;;
29362;SDS011;16349;53.672;10.014;2022-08-03T09:10:14;3.63;;;1.95;;
29362;SDS011;16349;53.672;10.014;2022-08-03T09:12:44;2.20;;;1.80;;
29362;SDS011;16349;53.672;10.014;2022-08-03T09:15:20;2.13;;;1.90;;
29362;SDS011;16349;53.672;10.014;2022-08-03T09:17:50;3.72;;;2.42;;
29362;SDS011;16349;53.672;10.014;2022-08-03T09:20:19;3.05;;;2.00;;
29362;SDS011;16349;53.672;10.014;2022-08-03T09:22:50;3.17;;;1.60;;
29362;SDS011;16349;53.672;10.014;2022-08-03T09:25:25;3.50;;;1.80;;
29362;SDS011;16349;53.672;10.014;2022-08-03T09:28:03;2.90;;;1.83;;
29362;SDS011;16349;53.672;10.014;2022-08-03T09:30:32;2.55;;;1.70;;
29362;SDS011;16349;53.672;10.014;2022-08-03T09:33:01;2.75;;;1.75;;
29362;SDS011;16349;53.672;10.014;2022-08-03T09:35:29;1.60;;;1.50;;
29362;SDS011;16349;53.672;10.014;2022-08-03T09:38:07;4.90;;;1.60;;
29362;SDS011;16349;53.672;10.014;2022-08-03T09:40:35;2.28;;;2.03;;
29362;SDS011;16349;53.672;10.014;2022-08-03T09:43:02;2.60;;;1.70;;
29362;SDS011;16349;53.672;10.014;2022-08-03T09:45:32;3.83;;;1.75;;
29362;SDS011;16349;53.672;10.014;2022-08-03T09:50:50;3.92;;;1.77;;
29362;SDS011;16349;53.672;10.014;2022-08-03T09:53:18;3.10;;;1.73;;
29362;SDS011;16349;53.672;10.014;2022-08-03T09:55:49;7.80;;;1.95;;
29362;SDS011;16349;53.672;10.014;2022-08-03T09:58:17;2.88;;;1.60;;
29362;SDS011;16349;53.672;10.014;2022-08-03T10:00:53;5.57;;;1.58;;
29362;SDS011;16349;53.672;10.014;2022-08-03T10:03:24;1.95;;;1.75;;
29362;SDS011;16349;53.672;10.014;2022-08-03T10:05:52;3.97;;;1.80;;
29362;SDS011;16349;53.672;10.014;2022-08-03T10:08:19;3.95;;;1.63;;
29362;SDS011;16349;53.672;10.014;2022-08-03T10:10:47;2.22;;;1.60;;
29362;SDS011;16349;53.672;10.014;2022-08-03T10:13:15;2.85;;;1.83;;
29362;SDS011;16349;53.672;10.014;2022-08-03T10:15:43;2.25;;;1.75;;
29362;SDS011;16349;53.672;10.014;2022-08-03T10:18:10;4.93;;;1.60;;
29362;SDS011;16349;53.672;10.014;2022-08-03T10:20:40;4.50;;;1.60;;
29362;SDS011;16349;53.672;10.014;2022-08-03T10:23:10;3.92;;;1.50;;
29362;SDS011;16349;53.672;10.014;2022-08-03T10:25:39;3.00;;;1.73;;
29362;SDS011;16349;53.672;10.014;2022-08-03T10:28:09;2.90;;;1.48;;
29362;SDS011;16349;53.672;10.014;2022-08-03T10:30:40;2.03;;;1.40;;
29362;SDS011;16349;53.672;10.014;2022-08-03T10:33:14;2.70;;;1.90;;
29362;SDS011;16349;53.672;10.014;2022-08-03T10:35:45;2.83;;;1.70;;
29362;SDS011;16349;53.672;10.014;2022-08-03T10:38:17;6.13;;;1.88;;
29362;SDS011;16349;53.672;10.014;2022-08-03T10:40:46;4.43;;;1.55;;
29362;SDS011;16349;53.672;10.014;2022-08-03T10:43:19;3.50;;;1.60;;
29362;SDS011;16349;53.672;10.014;2022-08-03T10:45:48;3.65;;;1.60;;
29362;SDS011;16349;53.672;10.014;2022-08-03T10:48:15;5.13;;;1.88;;
29362;SDS011;16349;53.672;10.014;2022-08-03T10:50:46;4.05;;;1.60;;
29362;SDS011;16349;53.672;10.014;2022-08-03T10:53:14;4.85;;;2.00;;
29362;SDS011;16349;53.672;10.014;2022-08-03T10:55:41;3.28;;;1.70;;
29362;SDS011;16349;53.672;10.014;2022-08-03T10:58:45;3.25;;;1.60;;
29362;SDS011;16349;53.672;10.014;2022-08-03T11:01:14;2.25;;;1.60;;
29362;SDS011;16349;53.672;10.014;2022-08-03T11:06:42;3.78;;;1.70;;
29362;SDS011;16349;53.672;10.014;2022-08-03T11:09:13;4.10;;;1.30;;
29362;SDS011;16349;53.672;10.014;2022-08-03T11:11:42;4.35;;;1.55;;
29362;SDS011;16349;53.672;10.014;2022-08-03T11:14:10;4.47;;;1.60;;
29362;SDS011;16349;53.672;10.014;2022-08-03T11:16:39;4.07;;;1.70;;
29362;SDS011;16349;53.672;10.014;2022-08-03T11:19:07;3.08;;;1.80;;
29362;SDS011;16349;53.672;10.014;2022-08-03T11:21:55;2.97;;;1.30;;
29362;SDS011;16349;53.672;10.014;2022-08-03T11:27:25;4.28;;;1.60;;
29362;SDS011;16349;53.672;10.014;2022-08-03T11:29:54;2.17;;;1.55;;
29362;SDS011;16349;53.672;10.014;2022-08-03T11:35:21;3.22;;;1.60;;
29362;SDS011;16349;53.672;10.014;2022-08-03T11:38:01;4.40;;;1.75;;
29362;SDS011;16349;53.672;10.014;2022-08-03T11:40:36;5.18;;;1.70;;
29362;SDS011;16349;53.672;10.014;2022-08-03T11:43:06;3.85;;;1.98;;
29362;SDS011;16349;53.672;10.014;2022-08-03T11:45:34;2.75;;;1.27;;
29362;SDS011;16349;53.672;10.014;2022-08-03T11:48:11;5.63;;;1.55;;
29362;SDS011;16349;53.672;10.014;2022-08-03T11:50:40;1.83;;;1.58;;
29362;SDS011;16349;53.672;10.014;2022-08-03T11:53:13;3.20;;;1.65;;
29362;SDS011;16349;53.672;10.014;2022-08-03T11:55:42;2.15;;;1.35;;
29362;SDS011;16349;53.672;10.014;2022-08-03T11:58:16;6.05;;;1.60;;
29362;SDS011;16349;53.672;10.014;2022-08-03T12:00:43;3.03;;;1.70;;
29362;SDS011;16349;53.672;10.014;2022-08-03T12:03:10;4.50;;;2.10;;
29362;SDS011;16349;53.672;10.014;2022-08-03T12:05:43;1.77;;;1.48;;
29362;SDS011;16349;53.672;10.014;2022-08-03T12:08:14;5.05;;;1.58;;
29362;SDS011;16349;53.672;10.014;2022-08-03T12:10:45;6.82;;;1.70;;
29362;SDS011;16349;53.672;10.014;2022-08-03T12:13:16;2.63;;;1.60;;
29362;SDS011;16349;53.672;10.014;2022-08-03T12:15:49;4.15;;;1.52;;
29362;SDS011;16349;53.672;10.014;2022-08-03T12:18:17;2.45;;;1.73;;
29362;SDS011;16349;53.672;10.014;2022-08-03T12:20:46;3.15;;;1.50;;
29362;SDS011;16349;53.672;10.014;2022-08-03T12:23:14;3.63;;;1.63;;
29362;SDS011;16349;53.672;10.014;2022-08-03T12:25:41;5.07;;;1.60;;
29362;SDS011;16349;53.672;10.014;2022-08-03T12:28:13;6.88;;;1.40;;
29362;SDS011;16349;53.672;10.014;2022-08-03T12:30:43;5.03;;;1.50;;
29362;SDS011;16349;53.672;10.014;2022-08-03T12:33:14;3.13;;;1.58;;
29362;SDS011;16349;53.672;10.014;2022-08-03T12:35:49;2.42;;;1.70;;
29362;SDS011;16349;53.672;10.014;2022-08-03T12:38:30;2.95;;;1.52;;
29362;SDS011;16349;53.672;10.014;2022-08-03T12:40:58;5.32;;;1.60;;
29362;SDS011;16349;53.672;10.014;2022-08-03T12:43:26;3.22;;;1.70;;
29362;SDS011;16349;53.672;10.014;2022-08-03T12:46:12;2.13;;;1.40;;
29362;SDS011;16349;53.672;10.014;2022-08-03T12:49:00;5.20;;;1.55;;
29362;SDS011;16349;53.672;10.014;2022-08-03T12:51:28;4.00;;;1.80;;
29362;SDS011;16349;53.672;10.014;2022-08-03T12:53:59;4.95;;;1.63;;
29362;SDS011;16349;53.672;10.014;2022-08-03T12:56:26;1.98;;;1.33;;
29362;SDS011;16349;53.672;10.014;2022-08-03T12:58:53;4.75;;;1.42;;
29362;SDS011;16349;53.672;10.014;2022-08-03T13:01:20;3.20;;;1.35;;
29362;SDS011;16349;53.672;10.014;2022-08-03T13:03:49;3.40;;;1.45;;
29362;SDS011;16349;53.672;10.014;2022-08-03T13:06:18;3.40;;;1.38;;
29362;SDS011;16349;53.672;10.014;2022-08-03T13:08:45;3.45;;;1.55;;
29362;SDS011;16349;53.672;10.014;2022-08-03T13:11:21;3.28;;;1.77;;
29362;SDS011;16349;53.672;10.014;2022-08-03T13:13:49;3.78;;;1.75;;
29362;SDS011;16349;53.672;10.014;2022-08-03T13:16:16;3.75;;;1.63;;
29362;SDS011;16349;53.672;10.014;2022-08-03T13:18:44;5.63;;;1.40;;
29362;SDS011;16349;53.672;10.014;2022-08-03T13:21:11;3.28;;;1.40;;
29362;SDS011;16349;53.672;10.014;2022-08-03T13:23:39;2.00;;;1.50;;
29362;SDS011;16349;53.672;10.014;2022-08-03T13:26:07;3.08;;;1.52;;
29362;SDS011;16349;53.672;10.014;2022-08-03T13:28:35;2.75;;;1.65;;
29362;SDS011;16349;53.672;10.014;2022-08-03T13:31:02;6.15;;;1.42;;
29362;SDS011;16349;53.672;10.014;2022-08-03T13:33:29;2.55;;;1.50;;
29362;SDS011;16349;53.672;10.014;2022-08-03T13:35:56;2.95;;;1.60;;
29362;SDS011;16349;53.672;10.014;2022-08-03T13:38:23;3.90;;;1.50;;
29362;SDS011;16349;53.672;10.014;2022-08-03T13:40:50;3.13;;;1.17;;
29362;SDS011;16349;53.672;10.014;2022-08-03T13:43:18;4.15;;;1.40;;
29362;SDS011;16349;53.672;10.014;2022-08-03T13:45:46;5.05;;;1.25;;
29362;SDS011;16349;53.672;10.014;2022-08-03T13:48:12;4.15;;;1.75;;
29362;SDS011;16349;53.672;10.014;2022-08-03T13:50:39;3.58;;;1.45;;
29362;SDS011;16349;53.672;10.014;2022-08-03T13:53:06;4.40;;;1.50;;
29362;SDS011;16349;53.672;10.014;2022-08-03T13:55:32;3.22;;;1.40;;
29362;SDS011;16349;53.672;10.014;2022-08-03T13:57:59;3.72;;;1.65;;
29362;SDS011;16349;53.672;10.014;2022-08-03T14:00:27;2.72;;;1.30;;
29362;SDS011;16349;53.672;10.014;2022-08-03T14:02:55;6.43;;;1.65;;
29362;SDS011;16349;53.672;10.014;2022-08-03T14:05:23;19.55;;;2.15;;
29362;SDS011;16349;53.672;10.014;2022-08-03T14:07:50;4.05;;;1.85;;
29362;SDS011;16349;53.672;10.014;2022-08-03T14:10:17;4.10;;;1.77;;
29362;SDS011;16349;53.672;10.014;2022-08-03T14:12:44;2.53;;;1.50;;
29362;SDS011;16349;53.672;10.014;2022-08-03T14:15:11;5.40;;;1.30;;
29362;SDS011;16349;53.672;10.014;2022-08-03T14:17:38;3.33;;;1.60;;
29362;SDS011;16349;53.672;10.014;2022-08-03T14:20:07;3.75;;;1.75;;
29362;SDS011;16349;53.672;10.014;2022-08-03T14:22:36;2.60;;;1.15;;
29362;SDS011;16349;53.672;10.014;2022-08-03T14:25:04;2.63;;;1.15;;
29362;SDS011;16349;53.672;10.014;2022-08-03T14:27:31;2.17;;;1.30;;
29362;SDS011;16349;53.672;10.014;2022-08-03T14:29:58;2.25;;;1.30;;
29362;SDS011;16349;53.672;10.014;2022-08-03T14:32:25;6.50;;;1.60;;
29362;SDS011;16349;53.672;10.014;2022-08-03T14:34:52;2.30;;;1.52;;
29362;SDS011;16349;53.672;10.014;2022-08-03T14:37:20;2.38;;;1.50;;
29362;SDS011;16349;53.672;10.014;2022-08-03T14:39:47;2.10;;;1.33;;
29362;SDS011;16349;53.672;10.014;2022-08-03T14:42:14;6.00;;;1.60;;
29362;SDS011;16349;53.672;10.014;2022-08-03T14:44:41;2.55;;;1.40;;
29362;SDS011;16349;53.672;10.014;2022-08-03T14:47:08;2.80;;;1.63;;
29362;SDS011;16349;53.672;10.014;2022-08-03T14:49:35;3.20;;;1.52;;
29362;SDS011;16349;53.672;10.014;2022-08-03T14:52:02;1.95;;;1.55;;
29362;SDS011;16349;53.672;10.014;2022-08-03T14:54:31;3.42;;;1.55;;
29362;SDS011;16349;53.672;10.014;2022-08-03T14:56:57;5.10;;;1.58;;